Huvudsida
METAR-TAF:

METAR-TAF

Flygplatser :

Buochs flygplats

Buochs, Schweiz

latitud: 46-58-28N, longitud: 8-23-49E, höjd: 449 m

Aktuellt väderrapport

Denna rapport gjordes för 23 minuter sedan, klockan 23:20 UTC
Vind 7 kt från sydväst
Temperatur 1°C
Fuktighet 93%
Tryck 1006 hPa
Sikt 10 km eller mer
Spridda moln på en höjd av 1100 ft

METAR: LSZC 172320Z AUTO 23007KT 9999 SCT011 01/M00 Q1006

Tid: 00:43 (23:43 UTC)


TAF: saknas

Aktuella väderrapporter och prognoser från 4000 flygplatser (METAR- och TAF-rapporter).

De tillgängliga stationerna syns som gula och röda prickar på kartan.

För musen över prickarna för att se namnen på stationerna.

Klicka sedan för att få väderrapporter och prognoser.

För att ändra kartan: Klicka på de gröna knapparna med ett svart kors på för att zooma in; den gröna knappen med ett streck på för att zooma ut; eller på de gröna pilarna för angränsande kartor.


METAR-TAF: